sensor_id;sensor_type;location;lat;lon;timestamp;pressure;altitude;pressure_sealevel;temperature;humidity
74329;BME280;62749;51.982;5.916;2023-02-28T00:00:26;102953.97;;;2.76;67.46
74329;BME280;62749;51.982;5.916;2023-02-28T00:02:55;102960.25;;;2.85;66.81
74329;BME280;62749;51.982;5.916;2023-02-28T00:05:26;102953.38;;;2.88;66.25
74329;BME280;62749;51.982;5.916;2023-02-28T00:07:56;102954.19;;;2.86;66.01
74329;BME280;62749;51.982;5.916;2023-02-28T00:10:28;102958.50;;;2.84;66.34
74329;BME280;62749;51.982;5.916;2023-02-28T00:13:04;102949.94;;;2.89;66.00
74329;BME280;62749;51.982;5.916;2023-02-28T00:15:34;102947.41;;;2.92;65.95
74329;BME280;62749;51.982;5.916;2023-02-28T00:18:03;102945.91;;;3.02;65.58
74329;BME280;62749;51.982;5.916;2023-02-28T00:20:33;102949.47;;;3.07;65.94
74329;BME280;62749;51.982;5.916;2023-02-28T00:23:02;102953.19;;;3.16;65.79
74329;BME280;62749;51.982;5.916;2023-02-28T00:25:32;102946.28;;;3.19;65.03
74329;BME280;62749;51.982;5.916;2023-02-28T00:28:04;102942.84;;;3.20;64.93
74329;BME280;62749;51.982;5.916;2023-02-28T00:30:33;102951.63;;;3.24;64.81
74329;BME280;62749;51.982;5.916;2023-02-28T00:33:03;102945.63;;;3.28;65.27
74329;BME280;62749;51.982;5.916;2023-02-28T00:35:32;102946.38;;;3.22;64.82
74329;BME280;62749;51.982;5.916;2023-02-28T00:38:01;102946.38;;;3.22;64.86
74329;BME280;62749;51.982;5.916;2023-02-28T00:40:31;102952.25;;;3.14;64.70
74329;BME280;62749;51.982;5.916;2023-02-28T00:43:03;102947.16;;;3.20;65.51
74329;BME280;62749;51.982;5.916;2023-02-28T00:45:33;102945.44;;;3.20;64.63
74329;BME280;62749;51.982;5.916;2023-02-28T00:48:03;102955.06;;;3.23;64.53
74329;BME280;62749;51.982;5.916;2023-02-28T00:50:32;102941.25;;;3.27;64.57
74329;BME280;62749;51.982;5.916;2023-02-28T00:53:01;102946.56;;;3.32;64.82
74329;BME280;62749;51.982;5.916;2023-02-28T00:55:31;102943.13;;;3.34;64.74
74329;BME280;62749;51.982;5.916;2023-02-28T00:58:00;102952.59;;;3.29;64.72
74329;BME280;62749;51.982;5.916;2023-02-28T01:00:32;102951.69;;;3.27;64.87
74329;BME280;62749;51.982;5.916;2023-02-28T01:03:02;102905.16;;;3.11;64.75
74329;BME280;62749;51.982;5.916;2023-02-28T01:05:31;102945.56;;;3.25;64.47
74329;BME280;62749;51.982;5.916;2023-02-28T01:08:01;102942.00;;;3.23;64.57
74329;BME280;62749;51.982;5.916;2023-02-28T01:10:30;102944.47;;;3.17;64.52
74329;BME280;62749;51.982;5.916;2023-02-28T01:13:08;102940.28;;;3.23;65.06
74329;BME280;62749;51.982;5.916;2023-02-28T01:15:45;102931.63;;;3.26;65.12
74329;BME280;62749;51.982;5.916;2023-02-28T01:18:15;102941.44;;;3.35;64.71
74329;BME280;62749;51.982;5.916;2023-02-28T01:20:44;102926.47;;;3.29;64.52
74329;BME280;62749;51.982;5.916;2023-02-28T01:23:14;102943.13;;;3.33;64.62
74329;BME280;62749;51.982;5.916;2023-02-28T01:25:43;102952.81;;;3.38;64.62
74329;BME280;62749;51.982;5.916;2023-02-28T01:28:12;102952.91;;;3.43;65.21
74329;BME280;62749;51.982;5.916;2023-02-28T01:30:47;102946.78;;;3.43;65.04
74329;BME280;62749;51.982;5.916;2023-02-28T01:33:17;102952.75;;;3.35;65.48
74329;BME280;62749;51.982;5.916;2023-02-28T01:35:46;102946.66;;;3.35;65.59
74329;BME280;62749;51.982;5.916;2023-02-28T01:38:15;102956.19;;;3.34;66.15
74329;BME280;62749;51.982;5.916;2023-02-28T01:40:45;102946.47;;;3.27;66.28
74329;BME280;62749;51.982;5.916;2023-02-28T01:43:21;102938.59;;;3.26;66.48
74329;BME280;62749;51.982;5.916;2023-02-28T01:45:55;102950.81;;;3.27;66.48
74329;BME280;62749;51.982;5.916;2023-02-28T01:48:27;102944.63;;;3.23;67.03
74329;BME280;62749;51.982;5.916;2023-02-28T01:51:04;102937.72;;;3.25;66.71
74329;BME280;62749;51.982;5.916;2023-02-28T01:53:39;102948.25;;;3.28;66.91
74329;BME280;62749;51.982;5.916;2023-02-28T01:56:12;102937.66;;;3.23;66.71
74329;BME280;62749;51.982;5.916;2023-02-28T01:58:46;102941.81;;;3.14;66.78
74329;BME280;62749;51.982;5.916;2023-02-28T02:01:20;102943.34;;;3.05;67.33
74329;BME280;62749;51.982;5.916;2023-02-28T02:03:53;102934.66;;;3.06;67.65
74329;BME280;62749;51.982;5.916;2023-02-28T02:06:25;102932.16;;;3.11;66.98
74329;BME280;62749;51.982;5.916;2023-02-28T02:08:56;102940.88;;;3.12;67.28
74329;BME280;62749;51.982;5.916;2023-02-28T02:11:26;102937.34;;;3.10;67.04
74329;BME280;62749;51.982;5.916;2023-02-28T02:14:22;102931.25;;;3.09;67.21
74329;BME280;62749;51.982;5.916;2023-02-28T02:17:09;102935.38;;;2.99;67.17
74329;BME280;62749;51.982;5.916;2023-02-28T02:20:28;102934.47;;;2.99;67.49
74329;BME280;62749;51.982;5.916;2023-02-28T02:26:25;102942.41;;;3.03;67.50
74329;BME280;62749;51.982;5.916;2023-02-28T02:29:35;102935.59;;;3.09;67.36
74329;BME280;62749;51.982;5.916;2023-02-28T02:32:25;102936.28;;;3.01;66.97
74329;BME280;62749;51.982;5.916;2023-02-28T02:35:12;102940.50;;;2.95;67.38
74329;BME280;62749;51.982;5.916;2023-02-28T02:37:50;102941.34;;;2.95;66.02
74329;BME280;62749;51.982;5.916;2023-02-28T02:40:23;102934.56;;;3.03;66.81
74329;BME280;62749;51.982;5.916;2023-02-28T02:43:00;102934.47;;;2.99;65.98
74329;BME280;62749;51.982;5.916;2023-02-28T02:45:36;102935.50;;;3.05;65.58
74329;BME280;62749;51.982;5.916;2023-02-28T02:48:11;102930.25;;;3.04;65.59
74329;BME280;62749;51.982;5.916;2023-02-28T02:50:48;102946.00;;;3.07;64.17
74329;BME280;62749;51.982;5.916;2023-02-28T02:53:24;102945.00;;;3.02;64.28
74329;BME280;62749;51.982;5.916;2023-02-28T02:55:59;102938.00;;;2.99;64.08
74329;BME280;62749;51.982;5.916;2023-02-28T02:58:33;102938.13;;;3.05;64.17
74329;BME280;62749;51.982;5.916;2023-02-28T03:01:14;102939.88;;;3.06;63.95
74329;BME280;62749;51.982;5.916;2023-02-28T03:03:45;102951.25;;;3.09;63.91
74329;BME280;62749;51.982;5.916;2023-02-28T03:06:17;102952.94;;;3.06;64.02
74329;BME280;62749;51.982;5.916;2023-02-28T03:08:47;102951.25;;;3.09;65.10
74329;BME280;62749;51.982;5.916;2023-02-28T03:11:16;102949.47;;;3.06;64.35
74329;BME280;62749;51.982;5.916;2023-02-28T03:14:01;102954.69;;;3.06;64.66
74329;BME280;62749;51.982;5.916;2023-02-28T03:16:49;102945.09;;;3.06;64.35
74329;BME280;62749;51.982;5.916;2023-02-28T03:19:35;102957.38;;;3.09;64.43
74329;BME280;62749;51.982;5.916;2023-02-28T03:22:21;102953.75;;;3.02;64.16
74329;BME280;62749;51.982;5.916;2023-02-28T03:25:00;102954.53;;;3.00;63.58
74329;BME280;62749;51.982;5.916;2023-02-28T03:27:38;102947.69;;;3.05;63.74
74329;BME280;62749;51.982;5.916;2023-02-28T03:30:14;102951.06;;;3.01;63.53
74329;BME280;62749;51.982;5.916;2023-02-28T03:32:53;102948.44;;;2.99;63.08
74329;BME280;62749;51.982;5.916;2023-02-28T03:35:27;102956.16;;;2.95;62.80
74329;BME280;62749;51.982;5.916;2023-02-28T03:38:07;102951.88;;;2.98;63.29
74329;BME280;62749;51.982;5.916;2023-02-28T03:40:44;102949.41;;;3.04;62.96
74329;BME280;62749;51.982;5.916;2023-02-28T03:43:22;102949.47;;;3.06;62.76
74329;BME280;62749;51.982;5.916;2023-02-28T03:45:56;102952.19;;;3.11;61.70
74329;BME280;62749;51.982;5.916;2023-02-28T03:48:32;102943.34;;;3.05;62.28
74329;BME280;62749;51.982;5.916;2023-02-28T03:51:08;102950.41;;;3.10;61.27
74329;BME280;62749;51.982;5.916;2023-02-28T03:53:46;102941.84;;;3.17;60.65
74329;BME280;62749;51.982;5.916;2023-02-28T03:56:21;102948.97;;;3.22;61.13
74329;BME280;62749;51.982;5.916;2023-02-28T03:58:57;102948.19;;;3.27;61.30
74329;BME280;62749;51.982;5.916;2023-02-28T04:01:36;102937.75;;;3.27;60.88
74329;BME280;62749;51.982;5.916;2023-02-28T04:04:08;102929.06;;;3.29;60.84
74329;BME280;62749;51.982;5.916;2023-02-28T04:06:39;102935.22;;;3.31;60.29
74329;BME280;62749;51.982;5.916;2023-02-28T04:09:14;102931.69;;;3.29;59.46
74329;BME280;62749;51.982;5.916;2023-02-28T04:11:46;102928.19;;;3.27;60.12
74329;BME280;62749;51.982;5.916;2023-02-28T04:14:18;102937.81;;;3.30;59.33
74329;BME280;62749;51.982;5.916;2023-02-28T04:16:48;102919.50;;;3.28;59.04
74329;BME280;62749;51.982;5.916;2023-02-28T04:19:18;102934.38;;;3.32;58.33
74329;BME280;62749;51.982;5.916;2023-02-28T04:21:50;102929.97;;;3.30;58.68
74329;BME280;62749;51.982;5.916;2023-02-28T04:24:25;102931.75;;;3.31;57.52
74329;BME280;62749;51.982;5.916;2023-02-28T04:27:15;102943.13;;;3.33;57.09
74329;BME280;62749;51.982;5.916;2023-02-28T04:29:45;102936.22;;;3.36;56.84
74329;BME280;62749;51.982;5.916;2023-02-28T04:32:14;102931.81;;;3.34;57.58
74329;BME280;62749;51.982;5.916;2023-02-28T04:34:43;102935.31;;;3.36;56.84
74329;BME280;62749;51.982;5.916;2023-02-28T04:37:13;102929.22;;;3.34;56.31
74329;BME280;62749;51.982;5.916;2023-02-28T04:39:45;102933.53;;;3.33;56.62
74329;BME280;62749;51.982;5.916;2023-02-28T04:42:15;102937.81;;;3.30;56.91
74329;BME280;62749;51.982;5.916;2023-02-28T04:44:44;102937.72;;;3.25;56.93
74329;BME280;62749;51.982;5.916;2023-02-28T04:47:13;102933.34;;;3.24;57.83
74329;BME280;62749;51.982;5.916;2023-02-28T04:49:42;102933.25;;;3.21;57.95
74329;BME280;62749;51.982;5.916;2023-02-28T04:52:12;102934.09;;;3.20;57.97
74329;BME280;62749;51.982;5.916;2023-02-28T04:54:41;102933.19;;;3.18;58.35
74329;BME280;62749;51.982;5.916;2023-02-28T04:57:13;102933.06;;;3.13;58.93
74329;BME280;62749;51.982;5.916;2023-02-28T04:59:43;102936.50;;;3.11;59.21
74329;BME280;62749;51.982;5.916;2023-02-28T05:02:12;102930.34;;;3.09;60.19
74329;BME280;62749;51.982;5.916;2023-02-28T05:04:41;102945.28;;;3.13;59.95
74329;BME280;62749;51.982;5.916;2023-02-28T05:07:11;102939.09;;;3.09;60.05
74329;BME280;62749;51.982;5.916;2023-02-28T05:09:40;102933.78;;;3.06;60.32
74329;BME280;62749;51.982;5.916;2023-02-28T05:12:09;102935.28;;;2.96;60.39
74329;BME280;62749;51.982;5.916;2023-02-28T05:14:42;102939.75;;;3.00;60.70
74329;BME280;62749;51.982;5.916;2023-02-28T05:17:11;102938.84;;;3.00;60.82
74329;BME280;62749;51.982;5.916;2023-02-28T05:19:40;102941.44;;;2.98;60.88
74329;BME280;62749;51.982;5.916;2023-02-28T05:22:14;102932.72;;;2.98;61.29
74329;BME280;62749;51.982;5.916;2023-02-28T05:24:44;102934.44;;;2.96;61.43
74329;BME280;62749;51.982;5.916;2023-02-28T05:27:13;102936.91;;;2.91;61.21
74329;BME280;62749;51.982;5.916;2023-02-28T05:29:45;102934.44;;;2.96;61.08
74329;BME280;62749;51.982;5.916;2023-02-28T05:32:15;102942.28;;;2.97;61.03
74329;BME280;62749;51.982;5.916;2023-02-28T05:34:44;102945.81;;;2.99;60.46
74329;BME280;62749;51.982;5.916;2023-02-28T05:37:14;102959.75;;;3.00;60.93
74329;BME280;62749;51.982;5.916;2023-02-28T05:39:44;102951.03;;;2.99;60.94
74329;BME280;62749;51.982;5.916;2023-02-28T05:42:13;102955.38;;;2.99;61.39
74329;BME280;62749;51.982;5.916;2023-02-28T05:44:46;102954.41;;;2.95;60.52
74329;BME280;62749;51.982;5.916;2023-02-28T05:47:15;102956.91;;;2.90;61.07
74329;BME280;62749;51.982;5.916;2023-02-28T05:49:45;102955.25;;;2.94;60.82
74329;BME280;62749;51.982;5.916;2023-02-28T05:52:14;102949.25;;;2.97;60.99
74329;BME280;62749;51.982;5.916;2023-02-28T05:54:43;102944.97;;;3.00;60.74
74329;BME280;62749;51.982;5.916;2023-02-28T05:57:13;102942.41;;;3.03;60.98
74329;BME280;62749;51.982;5.916;2023-02-28T05:59:45;102960.69;;;3.03;60.55
74329;BME280;62749;51.982;5.916;2023-02-28T06:02:16;102957.19;;;3.01;61.53
74329;BME280;62749;51.982;5.916;2023-02-28T06:04:46;102946.78;;;3.04;60.88
74329;BME280;62749;51.982;5.916;2023-02-28T06:07:15;102956.28;;;3.01;60.20
74329;BME280;62749;51.982;5.916;2023-02-28T06:09:45;102950.16;;;2.99;60.76
74329;BME280;62749;51.982;5.916;2023-02-28T06:12:14;102939.59;;;2.94;60.99
74329;BME280;62749;51.982;5.916;2023-02-28T06:14:46;102969.66;;;2.78;61.19
74329;BME280;62749;51.982;5.916;2023-02-28T06:17:15;102976.66;;;2.79;61.24
74329;BME280;62749;51.982;5.916;2023-02-28T06:19:45;102972.38;;;2.81;61.31
74329;BME280;62749;51.982;5.916;2023-02-28T06:22:14;102966.34;;;2.85;62.11
74329;BME280;62749;51.982;5.916;2023-02-28T06:24:44;102968.22;;;2.91;61.53
74329;BME280;62749;51.982;5.916;2023-02-28T06:27:13;102974.38;;;2.93;61.16
74329;BME280;62749;51.982;5.916;2023-02-28T06:29:42;102963.06;;;2.92;60.97
74329;BME280;62749;51.982;5.916;2023-02-28T06:32:14;102974.25;;;2.87;60.09
74329;BME280;62749;51.982;5.916;2023-02-28T06:34:44;102984.56;;;2.82;60.33
74329;BME280;62749;51.982;5.916;2023-02-28T06:37:13;102975.72;;;2.77;59.96
74329;BME280;62749;51.982;5.916;2023-02-28T06:39:43;102983.91;;;2.91;60.26
74329;BME280;62749;51.982;5.916;2023-02-28T06:42:12;102983.97;;;2.94;60.88
74329;BME280;62749;51.982;5.916;2023-02-28T06:44:44;102979.59;;;2.93;60.15
74329;BME280;62749;51.982;5.916;2023-02-28T06:47:16;102997.13;;;2.97;59.92
74329;BME280;62749;51.982;5.916;2023-02-28T06:49:46;102994.31;;;2.89;59.30
74329;BME280;62749;51.982;5.916;2023-02-28T06:52:15;102998.88;;;2.97;60.04
74329;BME280;62749;51.982;5.916;2023-02-28T06:54:45;102991.91;;;2.97;59.69
74329;BME280;62749;51.982;5.916;2023-02-28T06:57:27;103003.16;;;2.95;59.42
74329;BME280;62749;51.982;5.916;2023-02-28T06:59:58;103003.94;;;2.92;59.49
74329;BME280;62749;51.982;5.916;2023-02-28T07:02:30;103003.06;;;2.90;58.64
74329;BME280;62749;51.982;5.916;2023-02-28T07:05:00;103000.19;;;2.81;58.77
74329;BME280;62749;51.982;5.916;2023-02-28T07:07:29;102995.84;;;2.81;58.82
74329;BME280;62749;51.982;5.916;2023-02-28T07:09:59;103008.28;;;2.91;59.21
74329;BME280;62749;51.982;5.916;2023-02-28T07:12:28;103008.31;;;2.93;58.78
74329;BME280;62749;51.982;5.916;2023-02-28T07:14:57;103005.78;;;2.96;59.11
74329;BME280;62749;51.982;5.916;2023-02-28T07:17:29;103016.34;;;2.99;58.54
74329;BME280;62749;51.982;5.916;2023-02-28T07:19:59;103006.84;;;3.03;58.30
74329;BME280;62749;51.982;5.916;2023-02-28T07:22:30;103016.56;;;3.10;58.25
74329;BME280;62749;51.982;5.916;2023-02-28T07:25:00;103006.94;;;3.07;55.91
74329;BME280;62749;51.982;5.916;2023-02-28T07:27:29;103003.50;;;3.09;57.17
74329;BME280;62749;51.982;5.916;2023-02-28T07:30:00;103007.78;;;3.06;56.91
74329;BME280;62749;51.982;5.916;2023-02-28T07:32:32;103010.38;;;3.05;57.25
74329;BME280;62749;51.982;5.916;2023-02-28T07:35:04;103021.63;;;3.02;57.79
74329;BME280;62749;51.982;5.916;2023-02-28T07:37:34;103024.31;;;3.05;56.94
74329;BME280;62749;51.982;5.916;2023-02-28T07:40:06;103013.81;;;3.04;57.28
74329;BME280;62749;51.982;5.916;2023-02-28T07:42:37;103016.41;;;3.02;57.04
74329;BME280;62749;51.982;5.916;2023-02-28T07:45:08;103018.28;;;3.08;56.54
74329;BME280;62749;51.982;5.916;2023-02-28T07:47:42;103016.56;;;3.09;56.57
74329;BME280;62749;51.982;5.916;2023-02-28T07:50:14;103019.78;;;2.98;56.57
74329;BME280;62749;51.982;5.916;2023-02-28T07:52:44;103020.44;;;2.89;56.11
74329;BME280;62749;51.982;5.916;2023-02-28T07:55:13;103021.63;;;3.02;56.53
74329;BME280;62749;51.982;5.916;2023-02-28T07:57:43;103025.22;;;3.07;55.52
74329;BME280;62749;51.982;5.916;2023-02-28T08:00:13;103027.03;;;3.10;55.51
74329;BME280;62749;51.982;5.916;2023-02-28T08:02:45;103023.72;;;3.16;55.12
74329;BME280;62749;51.982;5.916;2023-02-28T08:05:14;103026.19;;;3.11;53.79
74329;BME280;62749;51.982;5.916;2023-02-28T08:07:44;103030.66;;;3.15;54.03
74329;BME280;62749;51.982;5.916;2023-02-28T08:10:14;103030.00;;;3.24;52.35
74329;BME280;62749;51.982;5.916;2023-02-28T08:12:43;103036.94;;;3.23;52.32
74329;BME280;62749;51.982;5.916;2023-02-28T08:15:12;103035.06;;;3.18;52.31
74329;BME280;62749;51.982;5.916;2023-02-28T08:17:44;103040.28;;;3.18;51.70
74329;BME280;62749;51.982;5.916;2023-02-28T08:20:14;103032.75;;;3.30;51.82
74329;BME280;62749;51.982;5.916;2023-02-28T08:22:43;103046.09;;;3.43;51.43
74329;BME280;62749;51.982;5.916;2023-02-28T08:25:13;103045.13;;;3.37;50.05
74329;BME280;62749;51.982;5.916;2023-02-28T08:27:42;103037.84;;;3.24;47.36
74329;BME280;62749;51.982;5.916;2023-02-28T08:30:13;103024.22;;;3.37;46.26
74329;BME280;62749;51.982;5.916;2023-02-28T08:32:45;103025.03;;;3.35;46.33
74329;BME280;62749;51.982;5.916;2023-02-28T08:35:15;103030.50;;;3.46;45.99
74329;BME280;62749;51.982;5.916;2023-02-28T08:37:44;103024.44;;;3.47;45.47
74329;BME280;62749;51.982;5.916;2023-02-28T08:40:17;103032.38;;;3.51;45.55
74329;BME280;62749;51.982;5.916;2023-02-28T08:42:47;103027.25;;;3.56;45.88
74329;BME280;62749;51.982;5.916;2023-02-28T08:45:30;103021.50;;;3.71;46.47
74329;BME280;62749;51.982;5.916;2023-02-28T08:48:02;103032.91;;;3.75;44.01
74329;BME280;62749;51.982;5.916;2023-02-28T08:50:32;103029.13;;;3.62;43.38
74329;BME280;62749;51.982;5.916;2023-02-28T08:53:01;103038.78;;;3.64;45.28
74329;BME280;62749;51.982;5.916;2023-02-28T08:55:31;103037.13;;;3.69;44.12
74329;BME280;62749;51.982;5.916;2023-02-28T08:58:00;103024.56;;;3.91;43.98
74329;BME280;62749;51.982;5.916;2023-02-28T09:00:30;103032.44;;;3.94;44.40
74329;BME280;62749;51.982;5.916;2023-02-28T09:03:02;103028.03;;;3.90;44.14
74329;BME280;62749;51.982;5.916;2023-02-28T09:05:31;103026.19;;;3.88;43.13
74329;BME280;62749;51.982;5.916;2023-02-28T09:08:00;103030.22;;;3.72;42.68
74329;BME280;62749;51.982;5.916;2023-02-28T09:10:30;103021.13;;;3.94;43.18
74329;BME280;62749;51.982;5.916;2023-02-28T09:12:59;103023.31;;;4.15;44.01
74329;BME280;62749;51.982;5.916;2023-02-28T09:15:28;103032.84;;;4.13;43.17
74329;BME280;62749;51.982;5.916;2023-02-28T09:17:58;103028.38;;;4.07;43.48
74329;BME280;62749;51.982;5.916;2023-02-28T09:20:30;103031.06;;;4.10;41.52
74329;BME280;62749;51.982;5.916;2023-02-28T09:22:59;103033.31;;;4.36;41.28
74329;BME280;62749;51.982;5.916;2023-02-28T09:25:28;103036.19;;;4.50;40.01
74329;BME280;62749;51.982;5.916;2023-02-28T09:28:05;103034.09;;;4.78;40.11
74329;BME280;62749;51.982;5.916;2023-02-28T09:30:34;103041.47;;;5.01;39.42
74329;BME280;62749;51.982;5.916;2023-02-28T09:33:04;103039.50;;;4.87;37.78
74329;BME280;62749;51.982;5.916;2023-02-28T09:35:36;103025.13;;;4.65;38.07
74329;BME280;62749;51.982;5.916;2023-02-28T09:38:06;103027.09;;;4.77;38.88
74329;BME280;62749;51.982;5.916;2023-02-28T09:40:41;103036.88;;;4.87;38.51
74329;BME280;62749;51.982;5.916;2023-02-28T09:43:16;103023.97;;;4.97;39.47
74329;BME280;62749;51.982;5.916;2023-02-28T09:45:51;103031.91;;;5.01;37.80
74329;BME280;62749;51.982;5.916;2023-02-28T09:48:29;103029.28;;;5.01;38.26
74329;BME280;62749;51.982;5.916;2023-02-28T09:51:14;103033.09;;;5.20;38.65
74329;BME280;62749;51.982;5.916;2023-02-28T09:53:45;103028.75;;;5.22;37.41
74329;BME280;62749;51.982;5.916;2023-02-28T09:56:21;103024.41;;;5.25;37.77
74329;BME280;62749;51.982;5.916;2023-02-28T09:58:56;103018.66;;;5.49;39.19
74329;BME280;62749;51.982;5.916;2023-02-28T10:01:34;103024.81;;;5.51;38.74
74329;BME280;62749;51.982;5.916;2023-02-28T10:04:14;103027.50;;;5.57;38.77
74329;BME280;62749;51.982;5.916;2023-02-28T10:06:50;103018.78;;;5.57;37.12
74329;BME280;62749;51.982;5.916;2023-02-28T10:09:24;103030.75;;;5.39;37.31
74329;BME280;62749;51.982;5.916;2023-02-28T10:12:02;103030.09;;;5.54;36.08
74329;BME280;62749;51.982;5.916;2023-02-28T10:14:34;103017.69;;;5.44;36.69
74329;BME280;62749;51.982;5.916;2023-02-28T10:17:10;103024.59;;;5.37;36.38
74329;BME280;62749;51.982;5.916;2023-02-28T10:19:46;103020.09;;;5.28;36.15
74329;BME280;62749;51.982;5.916;2023-02-28T10:22:27;103017.03;;;5.57;36.56
74329;BME280;62749;51.982;5.916;2023-02-28T10:24:58;103026.03;;;5.75;36.92
74329;BME280;62749;51.982;5.916;2023-02-28T10:27:30;103024.31;;;5.78;35.55
74329;BME280;62749;51.982;5.916;2023-02-28T10:30:02;103025.22;;;5.80;35.71
74329;BME280;62749;51.982;5.916;2023-02-28T10:32:34;103012.63;;;5.55;35.87
74329;BME280;62749;51.982;5.916;2023-02-28T10:35:15;103010.66;;;5.40;36.12
74329;BME280;62749;51.982;5.916;2023-02-28T10:37:49;103013.53;;;5.58;36.24
74329;BME280;62749;51.982;5.916;2023-02-28T10:40:30;103016.06;;;5.50;37.10
74329;BME280;62749;51.982;5.916;2023-02-28T10:43:02;103014.69;;;5.77;36.86
74329;BME280;62749;51.982;5.916;2023-02-28T10:45:34;103001.72;;;5.88;37.40
74329;BME280;62749;51.982;5.916;2023-02-28T10:48:26;103002.25;;;5.61;37.04
74329;BME280;62749;51.982;5.916;2023-02-28T10:50:56;103005.19;;;5.87;38.69
74329;BME280;62749;51.982;5.916;2023-02-28T10:53:37;102999.72;;;5.70;37.51
74329;BME280;62749;51.982;5.916;2023-02-28T10:56:16;103006.50;;;5.54;37.96
74329;BME280;62749;51.982;5.916;2023-02-28T10:58:51;103003.84;;;5.52;38.93
74329;BME280;62749;51.982;5.916;2023-02-28T11:01:24;102995.19;;;5.58;37.92
74329;BME280;62749;51.982;5.916;2023-02-28T11:03:53;102995.41;;;5.75;39.03
74329;BME280;62749;51.982;5.916;2023-02-28T11:06:28;102993.75;;;5.82;38.70
74329;BME280;62749;51.982;5.916;2023-02-28T11:09:06;102993.84;;;5.87;38.95
74329;BME280;62749;51.982;5.916;2023-02-28T11:11:47;103001.56;;;5.76;38.39
74329;BME280;62749;51.982;5.916;2023-02-28T11:14:22;102993.59;;;5.68;38.97
74329;BME280;62749;51.982;5.916;2023-02-28T11:16:54;102993.53;;;5.65;38.97
74329;BME280;62749;51.982;5.916;2023-02-28T11:19:34;102984.91;;;5.72;39.04
74329;BME280;62749;51.982;5.916;2023-02-28T11:22:07;102979.06;;;5.93;39.02
74329;BME280;62749;51.982;5.916;2023-02-28T11:24:43;102975.22;;;6.39;37.86
74329;BME280;62749;51.982;5.916;2023-02-28T11:27:25;102973.44;;;6.38;36.80
74329;BME280;62749;51.982;5.916;2023-02-28T11:29:55;102979.38;;;6.20;36.76
74329;BME280;62749;51.982;5.916;2023-02-28T11:32:26;102973.56;;;6.49;36.03
74329;BME280;62749;51.982;5.916;2023-02-28T11:35:03;102974.59;;;6.66;35.63
74329;BME280;62749;51.982;5.916;2023-02-28T11:37:33;102970.44;;;6.02;37.19
74329;BME280;62749;51.982;5.916;2023-02-28T11:40:12;102966.75;;;5.91;36.92
74329;BME280;62749;51.982;5.916;2023-02-28T11:42:56;102969.22;;;6.51;35.82
74329;BME280;62749;51.982;5.916;2023-02-28T11:45:42;102975.53;;;6.71;35.25
74329;BME280;62749;51.982;5.916;2023-02-28T11:48:20;102958.34;;;7.09;35.09
74329;BME280;62749;51.982;5.916;2023-02-28T11:51:04;102966.88;;;6.83;34.09
74329;BME280;62749;51.982;5.916;2023-02-28T11:53:51;102963.09;;;6.55;35.23
74329;BME280;62749;51.982;5.916;2023-02-28T11:56:32;102960.38;;;6.41;36.23
74329;BME280;62749;51.982;5.916;2023-02-28T11:59:24;102955.03;;;6.32;37.18
74329;BME280;62749;51.982;5.916;2023-02-28T12:02:16;102962.78;;;6.21;36.43
74329;BME280;62749;51.982;5.916;2023-02-28T12:04:57;102955.63;;;6.07;36.48
74329;BME280;62749;51.982;5.916;2023-02-28T12:07:38;102959.06;;;6.00;36.92
74329;BME280;62749;51.982;5.916;2023-02-28T12:10:21;102956.50;;;6.06;37.33
74329;BME280;62749;51.982;5.916;2023-02-28T12:13:08;102955.63;;;6.09;36.06
74329;BME280;62749;51.982;5.916;2023-02-28T12:15:56;102950.28;;;5.99;36.79
74329;BME280;62749;51.982;5.916;2023-02-28T12:18:47;102940.84;;;6.16;37.15
74329;BME280;62749;51.982;5.916;2023-02-28T12:21:31;102944.28;;;6.08;37.63
74329;BME280;62749;51.982;5.916;2023-02-28T12:27:07;102917.28;;;7.34;35.79
74329;BME280;62749;51.982;5.916;2023-02-28T12:29:47;102923.44;;;7.38;35.38
74329;BME280;62749;51.982;5.916;2023-02-28T12:32:22;102924.25;;;7.21;35.08
74329;BME280;62749;51.982;5.916;2023-02-28T12:35:00;102921.38;;;6.92;36.01
74329;BME280;62749;51.982;5.916;2023-02-28T12:37:37;102927.56;;;6.99;35.05
74329;BME280;62749;51.982;5.916;2023-02-28T12:40:13;102911.03;;;7.14;36.00
74329;BME280;62749;51.982;5.916;2023-02-28T12:42:47;102906.56;;;7.00;35.51
74329;BME280;62749;51.982;5.916;2023-02-28T12:45:24;102925.97;;;7.21;35.23
74329;BME280;62749;51.982;5.916;2023-02-28T12:47:59;102905.78;;;7.14;35.83
74329;BME280;62749;51.982;5.916;2023-02-28T12:50:30;102908.31;;;7.00;34.66
74329;BME280;62749;51.982;5.916;2023-02-28T12:53:06;102901.13;;;6.71;34.60
74329;BME280;62749;51.982;5.916;2023-02-28T12:55:44;102902.09;;;6.87;34.39
74329;BME280;62749;51.982;5.916;2023-02-28T12:58:27;102903.09;;;7.06;34.03
74329;BME280;62749;51.982;5.916;2023-02-28T13:01:31;102905.81;;;7.20;33.90
74329;BME280;62749;51.982;5.916;2023-02-28T13:07:28;102892.94;;;7.83;32.55
74329;BME280;62749;51.982;5.916;2023-02-28T13:10:05;102889.50;;;8.12;33.17
74329;BME280;62749;51.982;5.916;2023-02-28T13:12:36;102883.38;;;8.40;32.57
74329;BME280;62749;51.982;5.916;2023-02-28T13:15:12;102888.69;;;8.52;32.21
74329;BME280;62749;51.982;5.916;2023-02-28T13:17:54;102875.19;;;9.81;30.02
74329;BME280;62749;51.982;5.916;2023-02-28T13:20:27;102876.38;;;11.45;28.59
74329;BME280;62749;51.982;5.916;2023-02-28T13:22:58;102882.88;;;12.48;26.41
74329;BME280;62749;51.982;5.916;2023-02-28T13:25:52;102874.41;;;12.25;26.60
74329;BME280;62749;51.982;5.916;2023-02-28T13:31:30;102871.97;;;11.44;27.66
74329;BME280;62749;51.982;5.916;2023-02-28T13:34:16;102873.03;;;12.00;26.40
74329;BME280;62749;51.982;5.916;2023-02-28T13:36:45;102871.19;;;12.05;27.12
74329;BME280;62749;51.982;5.916;2023-02-28T13:39:45;102867.69;;;12.57;26.25
74329;BME280;62749;51.982;5.916;2023-02-28T13:42:34;102870.50;;;11.22;27.24
74329;BME280;62749;51.982;5.916;2023-02-28T13:45:22;102870.69;;;11.75;26.51
74329;BME280;62749;51.982;5.916;2023-02-28T13:47:54;102865.25;;;12.45;26.36